• pl
  • eng

Awiacja
Kliknij na pogrubioną czerwoną nazwę, aby odkodować depeszę. 11:31 19.10.2018
  • WIND
  • SIGNIFICANT EURO
  • SIGNIFICANT
  • SIGMET
  • AIRMET
  • TAF FC
  • TAF FT
  • METAR GG30
  • METAR GG00


METAR EPBY 190930Z 05007KT 9999 BKN038 14/07 Q1024 =

METAR EPGD 190930Z 34009KT 310V020 9999 FEW031 13/04 Q1024 =

METAR EPKK 190930Z 28007KT 250V310 2500 BR OVC004 12/10 Q1022 =

METAR EPKT 190930Z 30006KT 1000 0800N R27/1200N PRFG BR OVC002 09/08
Q1023 =

METAR EPLB 190930Z 30005KT 5000 BR NSC 14/11 Q1020 =

METAR EPLL 190930Z 31005KT 250V350 1300 R25/1700N BR OVC002 09/08
Q1023 =

METAR EPMO 190930Z 36005KT 340V040 4000 BR OVC008 12/10 Q1022 =

METAR EPPO 190930Z VRB01KT 2800 BR OVC004 12/12 Q1024 =

METAR EPRA 190930Z NIL=

METAR EPRZ 190930Z 26007KT 5000 BR NSC 14/11 Q1021 =

METAR EPSC 190930Z 29005KT 9999 SCT002 BKN003 11/10 Q1025 =

METAR EPSY 190930Z 01009KT 320V040 9999 FEW018 13/08 Q1022 =

METAR EPWA 190930Z 33007KT 4000 BR BKN005 10/09 Q1022 NOSIG=

METAR EPWR 190930Z 35005KT 310V010 2400 BR OVC002 11/11 Q1024 =

METAR EPZG 190930Z 30003KT 270V350 7000 OVC007 12/11 Q1025 =
 METAR EPSY
Lokalizacja:EPSY
Czas:09:30 UTC
Średni kierunek wiatru:10 °
Średnia prędkość wiatru:9 węzłów
Kierunek wiatru zmienia się od:320 °
Kierunek wiatru zmienia się do:040 °
Widzialność:10 km i więcej
Pierwsza warstwa chmur:1/8 do 2/8, wysokość podstawy 1800 FT
Temperatura powietrza:13 °C
Temperatura punktu rosy:8 °C
Ciśnienie QNH:1022 hPa
Awiacja.imgw.pl jest pogodowym serwisem informacyjnym
Instytutu Meteorologii i Gospodarki Wodnej Państwowego Instytutu Badawczego.
Copyright IMGW PIB 2009-2011© Wszelkie prawa zastrzeżone.